createdAt,value
2022-12-04T00:03:13.267Z,3.92
2022-12-04T00:08:14.830Z,4.06
2022-12-04T00:13:16.179Z,3.99
2022-12-04T00:18:17.499Z,3.79
2022-12-04T00:23:18.834Z,3.70
2022-12-04T00:28:20.299Z,3.68
2022-12-04T00:33:21.618Z,3.48
2022-12-04T00:38:22.884Z,3.27
2022-12-04T00:43:24.190Z,3.38
2022-12-04T00:48:25.523Z,3.27
2022-12-04T00:53:26.811Z,3.57
2022-12-04T00:58:28.118Z,3.75
2022-12-04T01:03:29.482Z,3.79
2022-12-04T01:08:30.834Z,3.53
2022-12-04T01:13:32.090Z,3.66
2022-12-04T01:18:33.392Z,3.68
2022-12-04T01:23:34.741Z,3.67
2022-12-04T01:28:36.179Z,3.80
2022-12-04T01:33:37.471Z,3.65
2022-12-04T01:38:38.775Z,3.79
2022-12-04T01:43:40.188Z,3.84
2022-12-04T01:48:41.471Z,3.72
2022-12-04T01:53:42.846Z,3.74
2022-12-04T01:58:44.114Z,3.46
2022-12-04T02:03:45.373Z,3.57
2022-12-04T02:08:46.625Z,3.77
2022-12-04T02:13:47.903Z,3.80
2022-12-04T02:18:49.276Z,3.66
2022-12-04T02:23:50.582Z,3.86
2022-12-04T02:28:51.853Z,3.86
2022-12-04T02:33:53.105Z,3.93
2022-12-04T02:38:54.509Z,3.98
2022-12-04T02:43:55.766Z,3.88
2022-12-04T02:48:57.376Z,3.76
2022-12-04T02:53:58.625Z,3.55
2022-12-04T02:58:59.971Z,3.51
2022-12-04T03:04:01.267Z,3.45
2022-12-04T03:09:02.548Z,3.50
2022-12-04T03:14:03.859Z,3.57
2022-12-04T03:19:05.156Z,3.53
2022-12-04T03:24:06.422Z,3.83
2022-12-04T03:29:07.722Z,3.90
2022-12-04T03:34:09.001Z,3.66
2022-12-04T03:39:10.277Z,3.77
2022-12-04T03:44:11.861Z,3.77
2022-12-04T03:49:13.679Z,3.86
2022-12-04T03:54:15.094Z,3.52
2022-12-04T03:59:16.473Z,3.54
2022-12-04T04:04:17.772Z,3.56
2022-12-04T04:09:19.135Z,3.50
2022-12-04T04:14:39.227Z,3.78
2022-12-04T04:19:59.385Z,3.70
2022-12-04T04:25:00.704Z,3.72
2022-12-04T04:30:01.985Z,3.94
2022-12-04T04:35:03.423Z,3.88
2022-12-04T04:40:05.865Z,3.77
2022-12-04T04:45:07.149Z,4.03
2022-12-04T04:50:08.381Z,4.02
2022-12-04T04:55:09.718Z,4.08
2022-12-04T05:00:11.017Z,4.07
2022-12-04T05:05:12.353Z,4.25
2022-12-04T05:10:14.040Z,4.30
2022-12-04T05:15:15.326Z,4.38
2022-12-04T05:20:16.616Z,4.23
2022-12-04T05:25:17.873Z,4.25
2022-12-04T05:30:19.134Z,4.33
2022-12-04T05:35:20.397Z,4.23
2022-12-04T05:40:21.675Z,4.10
2022-12-04T05:45:22.962Z,4.09
2022-12-04T05:50:24.197Z,4.17
2022-12-04T05:55:25.428Z,4.07
2022-12-04T06:00:26.709Z,4.08
2022-12-04T06:05:28.024Z,3.85
2022-12-04T06:10:29.321Z,3.85
2022-12-04T06:15:30.643Z,3.71
2022-12-04T06:20:32.152Z,3.67
2022-12-04T06:25:33.458Z,3.80
2022-12-04T06:30:34.693Z,3.87
2022-12-04T06:35:35.918Z,4.08
2022-12-04T06:40:37.185Z,4.03
2022-12-04T06:45:38.439Z,4.02
2022-12-04T06:50:39.794Z,4.20
2022-12-04T06:55:41.084Z,4.15
2022-12-04T07:00:42.409Z,4.05
2022-12-04T07:05:43.732Z,3.87
2022-12-04T07:10:44.986Z,3.83
2022-12-04T07:15:46.297Z,3.92
2022-12-04T07:20:47.604Z,4.12
2022-12-04T07:25:48.814Z,4.18
2022-12-04T07:30:50.073Z,4.14
2022-12-04T07:35:51.265Z,4.30
2022-12-04T07:40:52.502Z,4.33
2022-12-04T07:45:53.772Z,4.32
2022-12-04T07:50:55.180Z,4.24
2022-12-04T07:55:56.492Z,4.33
2022-12-04T08:00:57.783Z,4.01
2022-12-04T08:05:59.023Z,4.38
2022-12-04T08:11:00.239Z,4.57
2022-12-04T08:16:01.440Z,4.59
2022-12-04T08:21:02.834Z,4.70
2022-12-04T08:26:04.095Z,4.67
2022-12-04T08:31:05.521Z,4.63
2022-12-04T08:36:06.756Z,4.67
2022-12-04T08:41:07.953Z,4.71
2022-12-04T08:46:09.647Z,4.75
2022-12-04T08:51:10.904Z,4.93
2022-12-04T08:56:12.153Z,4.94
2022-12-04T09:01:13.481Z,4.96
2022-12-04T09:06:14.772Z,4.95
2022-12-04T09:11:15.997Z,5.03
2022-12-04T09:16:17.333Z,5.18
2022-12-04T09:21:18.690Z,5.45
2022-12-04T09:26:20.027Z,5.70
2022-12-04T09:31:21.478Z,5.89
2022-12-04T09:36:23.028Z,6.26
2022-12-04T09:41:24.264Z,6.35
2022-12-04T09:46:25.514Z,6.60
2022-12-04T09:51:26.775Z,6.72
2022-12-04T09:56:27.992Z,6.93
2022-12-04T10:01:29.200Z,6.96
2022-12-04T10:06:30.418Z,6.98
2022-12-04T10:11:32.944Z,7.02
2022-12-04T10:16:34.532Z,7.34
2022-12-04T10:21:35.841Z,7.42
2022-12-04T10:26:37.155Z,7.56
2022-12-04T10:31:38.507Z,7.57
2022-12-04T10:36:39.770Z,7.67
2022-12-04T10:41:41.289Z,7.48
2022-12-04T10:46:46.020Z,7.03
2022-12-04T10:51:47.973Z,6.66
2022-12-04T10:56:49.209Z,6.75
2022-12-04T11:01:50.510Z,6.75
2022-12-04T11:06:51.826Z,7.03
2022-12-04T11:11:53.281Z,7.05
2022-12-04T11:16:54.550Z,7.63
2022-12-04T11:21:55.864Z,7.63
2022-12-04T11:26:57.123Z,7.94
2022-12-04T11:32:02.819Z,7.83
2022-12-04T11:37:08.323Z,7.76
2022-12-04T11:42:09.532Z,7.79
2022-12-04T11:47:10.835Z,7.58
2022-12-04T11:52:12.180Z,7.47
2022-12-04T11:57:13.509Z,8.27
2022-12-04T12:02:14.825Z,8.83
2022-12-04T12:07:16.151Z,8.37
2022-12-04T12:12:17.350Z,8.69
2022-12-04T12:17:21.705Z,8.76
2022-12-04T12:22:25.992Z,8.80
2022-12-04T12:27:27.286Z,8.92
2022-12-04T12:32:28.507Z,9.29
2022-12-04T12:37:29.869Z,9.85
2022-12-04T12:42:31.095Z,9.47
2022-12-04T12:47:32.287Z,9.27
2022-12-04T12:52:33.502Z,9.22
2022-12-04T12:57:34.737Z,8.67
2022-12-04T13:02:36.084Z,8.64
2022-12-04T13:07:37.357Z,8.45
2022-12-04T13:12:38.597Z,8.17
2022-12-04T13:17:39.790Z,8.01
2022-12-04T13:22:41.127Z,8.06
2022-12-04T13:27:42.738Z,7.86
2022-12-04T13:32:43.993Z,7.89
2022-12-04T13:37:45.261Z,7.88
2022-12-04T13:42:46.485Z,7.85
2022-12-04T13:47:47.748Z,7.91
2022-12-04T13:52:49.375Z,8.03
2022-12-04T13:57:51.173Z,7.97
2022-12-04T14:02:52.619Z,7.97
2022-12-04T14:07:53.987Z,7.88
2022-12-04T14:12:55.343Z,7.63
2022-12-04T14:17:56.590Z,7.45
2022-12-04T14:22:57.849Z,7.45
2022-12-04T14:27:59.185Z,7.60
2022-12-04T14:33:00.585Z,7.29
2022-12-04T14:38:01.849Z,7.05
2022-12-04T14:43:03.072Z,7.16
2022-12-04T14:48:04.340Z,7.00
2022-12-04T14:53:05.814Z,7.07
2022-12-04T14:58:25.954Z,6.93
2022-12-04T15:03:27.276Z,6.93
2022-12-04T15:08:28.575Z,6.95
2022-12-04T15:13:29.888Z,7.00
2022-12-04T15:18:34.230Z,7.01
2022-12-04T15:23:37.920Z,6.93
2022-12-04T15:28:40.410Z,7.01
2022-12-04T15:33:41.740Z,6.80
2022-12-04T15:38:42.953Z,6.89
2022-12-04T15:43:44.412Z,6.95
2022-12-04T15:48:48.007Z,6.78
2022-12-04T15:53:49.514Z,6.85
2022-12-04T15:58:50.818Z,6.89
2022-12-04T16:03:52.146Z,7.02
2022-12-04T16:08:59.456Z,7.05
2022-12-04T16:14:00.694Z,7.15
2022-12-04T16:19:01.921Z,6.82
2022-12-04T16:24:03.190Z,6.96
2022-12-04T16:29:04.477Z,7.04
2022-12-04T16:34:05.773Z,6.90
2022-12-04T16:39:09.049Z,7.07
2022-12-04T16:44:10.367Z,7.11
2022-12-04T16:49:12.008Z,7.05
2022-12-04T16:54:14.009Z,6.94
2022-12-04T16:59:15.342Z,7.13
2022-12-04T17:04:16.854Z,7.27
2022-12-04T17:09:18.309Z,7.21
2022-12-04T17:14:19.629Z,7.14
2022-12-04T17:19:20.898Z,7.14
2022-12-04T17:24:22.146Z,7.23
2022-12-04T17:29:23.376Z,7.27
2022-12-04T17:34:24.584Z,7.25
2022-12-04T17:39:25.907Z,7.20
2022-12-04T17:44:27.261Z,7.09
2022-12-04T17:49:28.545Z,7.00
2022-12-04T17:54:29.757Z,6.95
2022-12-04T17:59:31.000Z,7.01
2022-12-04T18:04:32.237Z,6.80
2022-12-04T18:09:33.918Z,6.85
2022-12-04T18:14:35.193Z,6.65
2022-12-04T18:19:36.545Z,6.92
2022-12-04T18:24:37.784Z,6.70
2022-12-04T18:29:39.065Z,6.80
2022-12-04T18:34:40.284Z,6.95
2022-12-04T18:39:41.697Z,6.70
2022-12-04T18:44:43.194Z,6.53
2022-12-04T18:49:44.458Z,6.59
2022-12-04T18:54:45.680Z,6.44
2022-12-04T18:59:46.906Z,6.78
2022-12-04T19:04:48.286Z,7.03
2022-12-04T19:15:14.837Z,6.89
2022-12-04T19:20:18.492Z,6.85
2022-12-04T19:25:20.032Z,7.02
2022-12-04T19:30:22.198Z,6.99
2022-12-04T19:35:23.525Z,6.88
2022-12-04T19:40:24.742Z,6.92
2022-12-04T19:45:26.018Z,6.92
2022-12-04T19:50:27.330Z,6.94
2022-12-04T19:55:28.630Z,7.05
2022-12-04T20:00:30.006Z,6.93
2022-12-04T20:05:33.410Z,7.05
2022-12-04T20:10:34.809Z,6.84
2022-12-04T20:15:36.171Z,6.92
2022-12-04T20:20:37.421Z,6.90
2022-12-04T20:25:38.994Z,6.95
2022-12-04T20:30:40.332Z,6.63
2022-12-04T20:35:46.583Z,6.35
2022-12-04T20:40:48.149Z,6.63
2022-12-04T20:45:49.450Z,6.99
2022-12-04T20:50:50.838Z,7.03
2022-12-04T20:55:52.083Z,6.99
2022-12-04T21:00:53.347Z,7.12
2022-12-04T21:05:54.571Z,7.18
2022-12-04T21:11:04.469Z,7.32
2022-12-04T21:16:06.962Z,7.41
2022-12-04T21:21:08.279Z,7.45
2022-12-04T21:26:09.533Z,7.52
2022-12-04T21:31:11.047Z,7.36
2022-12-04T21:36:12.536Z,7.32
2022-12-04T21:41:32.757Z,7.06
2022-12-04T21:46:34.068Z,6.94
2022-12-04T21:56:56.872Z,7.12
2022-12-04T22:01:58.470Z,7.09
2022-12-04T22:07:00.374Z,7.09
2022-12-04T22:12:04.215Z,6.86
2022-12-04T22:17:16.136Z,6.97
2022-12-04T22:22:17.329Z,7.08
2022-12-04T22:27:18.624Z,6.80
2022-12-04T22:32:19.985Z,6.83
2022-12-04T22:37:21.273Z,6.69
2022-12-04T22:42:22.577Z,6.43
2022-12-04T22:47:23.800Z,6.20
2022-12-04T22:52:25.023Z,6.20
2022-12-04T22:57:26.354Z,6.33
2022-12-04T23:02:27.603Z,6.28
2022-12-04T23:07:28.978Z,6.12
2022-12-04T23:12:30.212Z,6.28
2022-12-04T23:17:31.668Z,6.26
2022-12-04T23:22:32.961Z,6.05
2022-12-04T23:27:34.237Z,5.89
2022-12-04T23:32:35.501Z,6.00
2022-12-04T23:37:36.745Z,5.88
2022-12-04T23:42:37.981Z,5.92
2022-12-04T23:47:39.693Z,5.62
2022-12-04T23:52:40.982Z,5.50
2022-12-04T23:57:42.196Z,5.50
